sensor_id;sensor_type;location;lat;lon;timestamp;pressure;altitude;pressure_sealevel;temperature;humidity
21594;BME280;10959;51.328;7.322;2023-02-28T00:01:24;100051.44;;;2.44;64.25
21594;BME280;10959;51.328;7.322;2023-02-28T00:03:50;100049.69;;;2.46;64.48
21594;BME280;10959;51.328;7.322;2023-02-28T00:06:17;100052.34;;;2.46;65.00
21594;BME280;10959;51.328;7.322;2023-02-28T00:08:45;100051.44;;;2.47;64.89
21594;BME280;10959;51.328;7.322;2023-02-28T00:11:13;100055.03;;;2.49;65.05
21594;BME280;10959;51.328;7.322;2023-02-28T00:13:42;100055.88;;;2.44;65.25
21594;BME280;10959;51.328;7.322;2023-02-28T00:16:13;100054.09;;;2.38;65.46
21594;BME280;10959;51.328;7.322;2023-02-28T00:18:40;100055.03;;;2.49;65.35
21594;BME280;10959;51.328;7.322;2023-02-28T00:21:07;100052.38;;;2.57;65.11
21594;BME280;10959;51.328;7.322;2023-02-28T00:23:34;100050.63;;;2.61;64.95
21594;BME280;10959;51.328;7.322;2023-02-28T00:26:02;100050.63;;;2.57;64.36
21594;BME280;10959;51.328;7.322;2023-02-28T00:28:29;100055.94;;;2.54;64.74
21594;BME280;10959;51.328;7.322;2023-02-28T00:30:55;100056.75;;;2.41;65.69
21594;BME280;10959;51.328;7.322;2023-02-28T00:33:22;100051.44;;;2.41;65.73
21594;BME280;10959;51.328;7.322;2023-02-28T00:35:48;100053.19;;;2.33;65.90
21594;BME280;10959;51.328;7.322;2023-02-28T00:38:15;100054.06;;;2.30;65.85
21594;BME280;10959;51.328;7.322;2023-02-28T00:40:42;100060.25;;;2.29;66.15
21594;BME280;10959;51.328;7.322;2023-02-28T00:43:10;100056.75;;;2.41;65.59
21594;BME280;10959;51.328;7.322;2023-02-28T00:45:36;100046.13;;;2.38;65.64
21594;BME280;10959;51.328;7.322;2023-02-28T00:48:03;100049.66;;;2.40;65.88
21594;BME280;10959;51.328;7.322;2023-02-28T00:50:30;100051.44;;;2.38;65.87
21594;BME280;10959;51.328;7.322;2023-02-28T00:52:56;100050.53;;;2.33;65.54
21594;BME280;10959;51.328;7.322;2023-02-28T00:55:23;100051.41;;;2.32;65.80
21594;BME280;10959;51.328;7.322;2023-02-28T00:57:49;100046.97;;;2.31;65.44
21594;BME280;10959;51.328;7.322;2023-02-28T01:00:17;100046.97;;;2.31;65.70
21594;BME280;10959;51.328;7.322;2023-02-28T01:02:44;100048.72;;;2.21;65.57
21594;BME280;10959;51.328;7.322;2023-02-28T01:05:10;100047.81;;;2.17;66.26
21594;BME280;10959;51.328;7.322;2023-02-28T01:07:37;100053.09;;;2.11;66.26
21594;BME280;10959;51.328;7.322;2023-02-28T01:10:04;100054.75;;;1.90;66.77
21594;BME280;10959;51.328;7.322;2023-02-28T01:12:31;100052.09;;;1.86;66.74
21594;BME280;10959;51.328;7.322;2023-02-28T01:14:57;100058.16;;;1.68;67.04
21594;BME280;10959;51.328;7.322;2023-02-28T01:17:25;100056.38;;;1.70;67.24
21594;BME280;10959;51.328;7.322;2023-02-28T01:19:53;100057.28;;;1.67;67.51
21594;BME280;10959;51.328;7.322;2023-02-28T01:22:20;100058.16;;;1.65;67.75
21594;BME280;10959;51.328;7.322;2023-02-28T01:24:47;100059.94;;;1.69;67.66
21594;BME280;10959;51.328;7.322;2023-02-28T01:27:14;100056.47;;;1.79;67.23
21594;BME280;10959;51.328;7.322;2023-02-28T01:29:40;100052.09;;;1.87;67.58
21594;BME280;10959;51.328;7.322;2023-02-28T01:32:07;100053.00;;;1.96;67.06
21594;BME280;10959;51.328;7.322;2023-02-28T01:34:34;100047.75;;;2.02;66.79
21594;BME280;10959;51.328;7.322;2023-02-28T01:37:01;100040.66;;;2.01;66.16
21594;BME280;10959;51.328;7.322;2023-02-28T01:39:28;100039.78;;;2.05;66.38
21594;BME280;10959;51.328;7.322;2023-02-28T01:41:55;100041.59;;;2.12;66.48
21594;BME280;10959;51.328;7.322;2023-02-28T01:47:42;100029.16;;;2.06;66.13
21594;BME280;10959;51.328;7.322;2023-02-28T01:50:14;100037.13;;;2.08;65.55
21594;BME280;10959;51.328;7.322;2023-02-28T01:52:41;100028.31;;;2.15;65.63
21594;BME280;10959;51.328;7.322;2023-02-28T01:55:10;100033.63;;;2.12;65.67
21594;BME280;10959;51.328;7.322;2023-02-28T01:57:41;100024.72;;;2.08;65.97
21594;BME280;10959;51.328;7.322;2023-02-28T02:00:11;100022.06;;;2.04;66.18
21594;BME280;10959;51.328;7.322;2023-02-28T02:02:42;100015.88;;;2.08;65.83
21594;BME280;10959;51.328;7.322;2023-02-28T02:05:14;100023.81;;;1.99;65.88
21594;BME280;10959;51.328;7.322;2023-02-28T02:07:43;100021.09;;;1.89;66.45
21594;BME280;10959;51.328;7.322;2023-02-28T02:10:14;100021.88;;;1.68;67.76
21594;BME280;10959;51.328;7.322;2023-02-28T02:12:58;100021.72;;;1.45;68.54
21594;BME280;10959;51.328;7.322;2023-02-28T02:15:32;100024.41;;;1.51;68.31
21594;BME280;10959;51.328;7.322;2023-02-28T02:18:04;100035.94;;;1.52;67.92
21594;BME280;10959;51.328;7.322;2023-02-28T02:20:58;100020.72;;;1.28;68.82
21594;BME280;10959;51.328;7.322;2023-02-28T02:23:45;100018.91;;;1.20;69.77
21594;BME280;10959;51.328;7.322;2023-02-28T02:26:40;100017.00;;;1.07;70.12
21594;BME280;10959;51.328;7.322;2023-02-28T02:32:14;100013.53;;;1.14;70.46
21594;BME280;10959;51.328;7.322;2023-02-28T02:34:56;100014.34;;;1.06;70.79
21594;BME280;10959;51.328;7.322;2023-02-28T02:37:30;100019.78;;;1.21;70.11
21594;BME280;10959;51.328;7.322;2023-02-28T02:40:08;100011.81;;;1.19;70.39
21594;BME280;10959;51.328;7.322;2023-02-28T02:42:41;100010.94;;;1.19;70.52
21594;BME280;10959;51.328;7.322;2023-02-28T02:45:15;100012.66;;;1.17;70.22
21594;BME280;10959;51.328;7.322;2023-02-28T02:47:45;100015.41;;;1.25;70.17
21594;BME280;10959;51.328;7.322;2023-02-28T02:50:15;100014.47;;;1.19;70.58
21594;BME280;10959;51.328;7.322;2023-02-28T02:52:46;100012.75;;;1.25;70.28
21594;BME280;10959;51.328;7.322;2023-02-28T02:55:17;100013.53;;;1.14;70.09
21594;BME280;10959;51.328;7.322;2023-02-28T02:57:47;100024.19;;;1.17;70.03
21594;BME280;10959;51.328;7.322;2023-02-28T03:00:17;100011.69;;;1.06;70.41
21594;BME280;10959;51.328;7.322;2023-02-28T03:02:47;100016.97;;;1.04;70.88
21594;BME280;10959;51.328;7.322;2023-02-28T03:05:19;100023.00;;;0.83;71.42
21594;BME280;10959;51.328;7.322;2023-02-28T03:07:46;100021.09;;;0.73;72.41
21594;BME280;10959;51.328;7.322;2023-02-28T03:10:34;100029.63;;;0.41;73.08
21594;BME280;10959;51.328;7.322;2023-02-28T03:13:12;100023.59;;;0.56;72.43
21594;BME280;10959;51.328;7.322;2023-02-28T03:15:57;100025.44;;;0.63;72.46
21594;BME280;10959;51.328;7.322;2023-02-28T03:18:32;100023.59;;;0.56;73.08
21594;BME280;10959;51.328;7.322;2023-02-28T03:21:08;100023.59;;;0.56;72.79
21594;BME280;10959;51.328;7.322;2023-02-28T03:23:45;100021.84;;;0.55;73.15
21594;BME280;10959;51.328;7.322;2023-02-28T03:26:19;100007.47;;;0.37;73.89
21594;BME280;10959;51.328;7.322;2023-02-28T03:28:53;100004.00;;;0.41;73.28
21594;BME280;10959;51.328;7.322;2023-02-28T03:31:28;100011.13;;;0.45;72.59
21594;BME280;10959;51.328;7.322;2023-02-28T03:34:00;100002.31;;;0.46;72.74
21594;BME280;10959;51.328;7.322;2023-02-28T03:36:30;100014.63;;;0.44;72.66
21594;BME280;10959;51.328;7.322;2023-02-28T03:39:02;100011.09;;;0.42;72.88
21594;BME280;10959;51.328;7.322;2023-02-28T03:41:33;100008.44;;;0.42;72.47
21594;BME280;10959;51.328;7.322;2023-02-28T03:44:05;100009.22;;;0.32;72.28
21594;BME280;10959;51.328;7.322;2023-02-28T03:46:37;100012.91;;;0.46;72.43
21594;BME280;10959;51.328;7.322;2023-02-28T03:49:11;100014.56;;;0.37;71.67
21594;BME280;10959;51.328;7.322;2023-02-28T03:51:44;100020.81;;;0.43;71.35
21594;BME280;10959;51.328;7.322;2023-02-28T03:54:15;100018.22;;;0.49;71.33
21594;BME280;10959;51.328;7.322;2023-02-28T03:56:48;100020.00;;;0.50;70.96
21594;BME280;10959;51.328;7.322;2023-02-28T03:59:18;100014.72;;;0.50;71.45
21594;BME280;10959;51.328;7.322;2023-02-28T04:01:48;100024.19;;;0.30;71.15
21594;BME280;10959;51.328;7.322;2023-02-28T04:04:17;100022.53;;;0.40;70.62
21594;BME280;10959;51.328;7.322;2023-02-28T04:06:45;100021.69;;;0.42;70.74
21594;BME280;10959;51.328;7.322;2023-02-28T04:09:15;100019.00;;;0.38;70.62
21594;BME280;10959;51.328;7.322;2023-02-28T04:11:44;100019.16;;;0.53;70.41
21594;BME280;10959;51.328;7.322;2023-02-28T04:14:12;100022.63;;;0.47;69.64
21594;BME280;10959;51.328;7.322;2023-02-28T04:16:40;100012.91;;;0.46;70.04
21594;BME280;10959;51.328;7.322;2023-02-28T04:19:08;100024.38;;;0.45;69.67
21594;BME280;10959;51.328;7.322;2023-02-28T04:21:37;100017.03;;;0.21;70.41
21594;BME280;10959;51.328;7.322;2023-02-28T04:24:07;100017.59;;;-0.03;70.59
21594;BME280;10959;51.328;7.322;2023-02-28T04:26:40;100021.41;;;0.17;70.57
21594;BME280;10959;51.328;7.322;2023-02-28T04:29:09;100021.56;;;0.31;70.02
21594;BME280;10959;51.328;7.322;2023-02-28T04:31:36;100021.63;;;0.36;69.89
21594;BME280;10959;51.328;7.322;2023-02-28T04:34:03;100025.91;;;0.23;70.03
21594;BME280;10959;51.328;7.322;2023-02-28T04:36:30;100021.66;;;0.39;69.64
21594;BME280;10959;51.328;7.322;2023-02-28T04:38:56;100022.53;;;0.40;69.16
21594;BME280;10959;51.328;7.322;2023-02-28T04:41:24;100020.00;;;0.50;69.27
21594;BME280;10959;51.328;7.322;2023-02-28T04:43:51;100025.31;;;0.49;69.18
21594;BME280;10959;51.328;7.322;2023-02-28T04:46:17;100023.38;;;0.37;68.52
21594;BME280;10959;51.328;7.322;2023-02-28T04:48:44;100023.34;;;0.34;69.19
21594;BME280;10959;51.328;7.322;2023-02-28T04:51:12;100027.75;;;0.32;69.32
21594;BME280;10959;51.328;7.322;2023-02-28T04:53:40;100023.28;;;0.28;68.77
21594;BME280;10959;51.328;7.322;2023-02-28T04:56:09;100030.13;;;0.07;69.03
21594;BME280;10959;51.328;7.322;2023-02-28T04:58:37;100033.72;;;0.15;69.01
21594;BME280;10959;51.328;7.322;2023-02-28T05:01:06;100023.28;;;0.28;68.89
21594;BME280;10959;51.328;7.322;2023-02-28T05:03:37;100027.84;;;0.40;68.36
21594;BME280;10959;51.328;7.322;2023-02-28T05:06:05;100032.25;;;0.39;68.45
21594;BME280;10959;51.328;7.322;2023-02-28T05:08:32;100034.03;;;0.40;68.17
21594;BME280;10959;51.328;7.322;2023-02-28T05:10:58;100032.34;;;0.48;67.54
21594;BME280;10959;51.328;7.322;2023-02-28T05:13:26;100035.88;;;0.47;67.37
21594;BME280;10959;51.328;7.322;2023-02-28T05:15:54;100039.41;;;0.46;67.87
21594;BME280;10959;51.328;7.322;2023-02-28T05:18:21;100042.81;;;0.36;67.58
21594;BME280;10959;51.328;7.322;2023-02-28T05:20:47;100042.69;;;0.27;67.59
21594;BME280;10959;51.328;7.322;2023-02-28T05:23:14;100041.56;;;0.06;67.71
21594;BME280;10959;51.328;7.322;2023-02-28T05:25:42;100033.47;;;-0.06;67.56
21594;BME280;10959;51.328;7.322;2023-02-28T05:28:08;100040.53;;;-0.07;67.48
21594;BME280;10959;51.328;7.322;2023-02-28T05:30:35;100042.34;;;-0.04;67.90
21594;BME280;10959;51.328;7.322;2023-02-28T05:33:03;100044.09;;;-0.03;67.69
21594;BME280;10959;51.328;7.322;2023-02-28T05:35:29;100042.50;;;0.11;67.45
21594;BME280;10959;51.328;7.322;2023-02-28T05:37:55;100050.66;;;0.27;66.38
21594;BME280;10959;51.328;7.322;2023-02-28T05:40:22;100046.34;;;0.35;66.49
21594;BME280;10959;51.328;7.322;2023-02-28T05:42:50;100051.66;;;0.38;65.68
21594;BME280;10959;51.328;7.322;2023-02-28T05:45:16;100049.97;;;0.43;66.09
21594;BME280;10959;51.328;7.322;2023-02-28T05:47:43;100056.22;;;0.50;66.38
21594;BME280;10959;51.328;7.322;2023-02-28T05:50:11;100061.50;;;0.50;65.50
21594;BME280;10959;51.328;7.322;2023-02-28T05:52:37;100054.31;;;0.40;65.83
21594;BME280;10959;51.328;7.322;2023-02-28T05:55:05;100055.19;;;0.37;65.71
21594;BME280;10959;51.328;7.322;2023-02-28T05:57:31;100055.09;;;0.28;65.23
21594;BME280;10959;51.328;7.322;2023-02-28T05:59:58;100058.59;;;0.27;65.30
21594;BME280;10959;51.328;7.322;2023-02-28T06:02:24;100061.28;;;0.30;65.46
21594;BME280;10959;51.328;7.322;2023-02-28T06:04:51;100062.06;;;0.23;65.52
21594;BME280;10959;51.328;7.322;2023-02-28T06:07:18;100051.53;;;0.26;65.69
21594;BME280;10959;51.328;7.322;2023-02-28T06:09:47;100057.75;;;0.31;65.32
21594;BME280;10959;51.328;7.322;2023-02-28T06:12:14;100054.28;;;0.33;64.99
21594;BME280;10959;51.328;7.322;2023-02-28T06:14:40;100060.44;;;0.34;65.09
21594;BME280;10959;51.328;7.322;2023-02-28T06:17:08;100065.78;;;0.37;64.52
21594;BME280;10959;51.328;7.322;2023-02-28T06:19:36;100071.16;;;0.43;64.47
21594;BME280;10959;51.328;7.322;2023-02-28T06:22:04;100071.16;;;0.43;64.56
21594;BME280;10959;51.328;7.322;2023-02-28T06:24:32;100081.81;;;0.46;64.61
21594;BME280;10959;51.328;7.322;2023-02-28T06:26:58;100081.81;;;0.49;64.36
21594;BME280;10959;51.328;7.322;2023-02-28T06:29:30;100081.81;;;0.49;64.95
21594;BME280;10959;51.328;7.322;2023-02-28T06:31:56;100084.50;;;0.52;64.20
21594;BME280;10959;51.328;7.322;2023-02-28T06:34:23;100084.50;;;0.52;64.46
21594;BME280;10959;51.328;7.322;2023-02-28T06:36:50;100089.84;;;0.57;64.61
21594;BME280;10959;51.328;7.322;2023-02-28T06:39:18;100087.16;;;0.54;64.47
21594;BME280;10959;51.328;7.322;2023-02-28T06:41:46;100093.41;;;0.58;63.87
21594;BME280;10959;51.328;7.322;2023-02-28T06:44:14;100092.56;;;0.59;64.87
21594;BME280;10959;51.328;7.322;2023-02-28T06:46:44;100093.41;;;0.58;64.47
21594;BME280;10959;51.328;7.322;2023-02-28T06:49:11;100100.44;;;0.56;64.07
21594;BME280;10959;51.328;7.322;2023-02-28T06:51:39;100103.19;;;0.62;64.06
21594;BME280;10959;51.328;7.322;2023-02-28T06:54:07;100097.78;;;0.56;64.08
21594;BME280;10959;51.328;7.322;2023-02-28T06:56:35;100101.41;;;0.61;64.17
21594;BME280;10959;51.328;7.322;2023-02-28T06:59:03;100101.38;;;0.58;63.87
21594;BME280;10959;51.328;7.322;2023-02-28T07:01:30;100105.00;;;0.66;64.39
21594;BME280;10959;51.328;7.322;2023-02-28T07:03:58;100105.03;;;0.67;64.33
21594;BME280;10959;51.328;7.322;2023-02-28T07:06:25;100106.84;;;0.73;64.44
21594;BME280;10959;51.328;7.322;2023-02-28T07:08:52;100105.00;;;0.66;64.03
21594;BME280;10959;51.328;7.322;2023-02-28T07:11:19;100111.19;;;0.68;64.71
21594;BME280;10959;51.328;7.322;2023-02-28T07:13:47;100108.56;;;0.71;64.68
21594;BME280;10959;51.328;7.322;2023-02-28T07:16:15;100105.03;;;0.69;64.57
21594;BME280;10959;51.328;7.322;2023-02-28T07:18:41;100105.09;;;0.75;64.43
21594;BME280;10959;51.328;7.322;2023-02-28T07:21:09;100114.22;;;1.00;64.12
21594;BME280;10959;51.328;7.322;2023-02-28T07:23:36;100112.66;;;1.26;64.15
21594;BME280;10959;51.328;7.322;2023-02-28T07:26:04;100108.44;;;1.45;63.22
21594;BME280;10959;51.328;7.322;2023-02-28T07:28:31;100107.75;;;1.69;62.72
21594;BME280;10959;51.328;7.322;2023-02-28T07:31:03;100114.91;;;1.82;62.80
21594;BME280;10959;51.328;7.322;2023-02-28T07:33:31;100115.97;;;2.11;63.37
21594;BME280;10959;51.328;7.322;2023-02-28T07:36:00;100111.69;;;2.36;62.97
21594;BME280;10959;51.328;7.322;2023-02-28T07:38:26;100118.81;;;2.43;61.42
21594;BME280;10959;51.328;7.322;2023-02-28T07:40:53;100117.03;;;2.48;60.25
21594;BME280;10959;51.328;7.322;2023-02-28T07:43:19;100111.84;;;2.76;60.76
21594;BME280;10959;51.328;7.322;2023-02-28T07:45:46;100106.53;;;2.79;59.29
21594;BME280;10959;51.328;7.322;2023-02-28T07:48:12;100111.84;;;2.85;59.26
21594;BME280;10959;51.328;7.322;2023-02-28T07:50:40;100117.22;;;3.10;59.49
21594;BME280;10959;51.328;7.322;2023-02-28T07:53:07;100113.72;;;3.23;58.71
21594;BME280;10959;51.328;7.322;2023-02-28T07:55:33;100115.50;;;3.27;57.62
21594;BME280;10959;51.328;7.322;2023-02-28T07:58:00;100116.41;;;3.39;58.36
21594;BME280;10959;51.328;7.322;2023-02-28T08:00:26;100115.50;;;3.41;56.61
21594;BME280;10959;51.328;7.322;2023-02-28T08:02:54;100124.34;;;3.36;56.20
21594;BME280;10959;51.328;7.322;2023-02-28T08:05:20;100124.38;;;3.51;56.09
21594;BME280;10959;51.328;7.322;2023-02-28T08:07:49;100130.59;;;3.56;56.09
21594;BME280;10959;51.328;7.322;2023-02-28T08:10:16;100123.50;;;3.74;56.28
21594;BME280;10959;51.328;7.322;2023-02-28T08:12:43;100129.69;;;3.91;56.15
21594;BME280;10959;51.328;7.322;2023-02-28T08:15:10;100123.47;;;3.94;55.08
21594;BME280;10959;51.328;7.322;2023-02-28T08:17:36;100133.25;;;3.93;54.65
21594;BME280;10959;51.328;7.322;2023-02-28T08:20:04;100127.88;;;4.04;54.67
21594;BME280;10959;51.328;7.322;2023-02-28T08:22:31;100120.75;;;4.23;54.34
21594;BME280;10959;51.328;7.322;2023-02-28T08:24:58;100126.03;;;4.42;53.92
21594;BME280;10959;51.328;7.322;2023-02-28T08:27:25;100128.69;;;4.48;52.81
21594;BME280;10959;51.328;7.322;2023-02-28T08:29:51;100125.97;;;4.63;53.66
21594;BME280;10959;51.328;7.322;2023-02-28T08:32:19;100124.06;;;4.87;53.18
21594;BME280;10959;51.328;7.322;2023-02-28T08:34:45;100128.41;;;5.07;53.02
21594;BME280;10959;51.328;7.322;2023-02-28T08:37:11;100126.53;;;5.27;53.78
21594;BME280;10959;51.328;7.322;2023-02-28T08:39:38;100122.91;;;5.36;53.07
21594;BME280;10959;51.328;7.322;2023-02-28T08:42:06;100129.19;;;5.23;52.92
21594;BME280;10959;51.328;7.322;2023-02-28T08:44:33;100125.78;;;4.99;52.05
21594;BME280;10959;51.328;7.322;2023-02-28T08:46:59;100128.56;;;4.74;51.80
21594;BME280;10959;51.328;7.322;2023-02-28T08:49:26;100124.19;;;4.62;51.11
21594;BME280;10959;51.328;7.322;2023-02-28T08:51:52;100125.00;;;4.83;52.67
21594;BME280;10959;51.328;7.322;2023-02-28T08:54:20;100123.84;;;5.24;51.83
21594;BME280;10959;51.328;7.322;2023-02-28T08:56:48;100120.41;;;5.07;49.98
21594;BME280;10959;51.328;7.322;2023-02-28T08:59:16;100124.56;;;5.48;50.30
21594;BME280;10959;51.328;7.322;2023-02-28T09:01:42;100125.22;;;5.78;50.06
21594;BME280;10959;51.328;7.322;2023-02-28T09:04:09;100119.84;;;5.81;47.73
21594;BME280;10959;51.328;7.322;2023-02-28T09:06:37;100115.19;;;6.08;47.85
21594;BME280;10959;51.328;7.322;2023-02-28T09:09:03;100116.13;;;6.03;47.68
21594;BME280;10959;51.328;7.322;2023-02-28T09:11:32;100110.94;;;5.82;47.88
21594;BME280;10959;51.328;7.322;2023-02-28T09:13:59;100116.47;;;5.60;47.07
21594;BME280;10959;51.328;7.322;2023-02-28T09:16:27;100117.75;;;5.02;47.07
21594;BME280;10959;51.328;7.322;2023-02-28T09:18:53;100132.34;;;4.14;47.99
21594;BME280;10959;51.328;7.322;2023-02-28T09:21:20;100122.50;;;4.24;48.89
21594;BME280;10959;51.328;7.322;2023-02-28T09:23:48;100117.13;;;4.43;49.17
21594;BME280;10959;51.328;7.322;2023-02-28T09:26:16;100128.78;;;4.09;48.47
21594;BME280;10959;51.328;7.322;2023-02-28T09:28:43;100121.69;;;4.01;48.53
21594;BME280;10959;51.328;7.322;2023-02-28T09:31:12;100126.16;;;3.80;49.65
21594;BME280;10959;51.328;7.322;2023-02-28T09:33:41;100124.34;;;3.91;50.10
21594;BME280;10959;51.328;7.322;2023-02-28T09:36:08;100117.28;;;3.93;49.88
21594;BME280;10959;51.328;7.322;2023-02-28T09:38:34;100118.16;;;3.80;49.74
21594;BME280;10959;51.328;7.322;2023-02-28T09:41:04;100121.72;;;3.79;49.30
21594;BME280;10959;51.328;7.322;2023-02-28T09:43:38;100120.81;;;3.34;47.76
21594;BME280;10959;51.328;7.322;2023-02-28T09:46:14;100095.09;;;3.62;47.48
21594;BME280;10959;51.328;7.322;2023-02-28T09:48:47;100106.53;;;4.18;47.25
21594;BME280;10959;51.328;7.322;2023-02-28T09:51:28;100102.06;;;4.34;47.46
21594;BME280;10959;51.328;7.322;2023-02-28T09:53:56;100100.03;;;4.85;46.73
21594;BME280;10959;51.328;7.322;2023-02-28T09:56:26;100110.66;;;4.98;47.07
21594;BME280;10959;51.328;7.322;2023-02-28T09:58:57;100114.38;;;4.69;46.24
21594;BME280;10959;51.328;7.322;2023-02-28T10:01:29;100109.13;;;4.40;46.29
21594;BME280;10959;51.328;7.322;2023-02-28T10:04:00;100110.03;;;4.36;46.62
21594;BME280;10959;51.328;7.322;2023-02-28T10:06:33;100126.13;;;4.11;47.99
21594;BME280;10959;51.328;7.322;2023-02-28T10:09:04;100133.25;;;3.58;47.09
21594;BME280;10959;51.328;7.322;2023-02-28T10:11:35;100129.72;;;3.63;47.46
21594;BME280;10959;51.328;7.322;2023-02-28T10:14:09;100119.06;;;3.60;46.84
21594;BME280;10959;51.328;7.322;2023-02-28T10:16:42;100117.28;;;3.59;47.74
21594;BME280;10959;51.328;7.322;2023-02-28T10:19:15;100112.78;;;3.98;47.63
21594;BME280;10959;51.328;7.322;2023-02-28T10:21:48;100114.63;;;3.58;47.98
21594;BME280;10959;51.328;7.322;2023-02-28T10:24:28;100111.06;;;3.79;47.20
21594;BME280;10959;51.328;7.322;2023-02-28T10:27:00;100111.97;;;3.72;48.43
21594;BME280;10959;51.328;7.322;2023-02-28T10:29:27;100108.38;;;3.97;47.43
21594;BME280;10959;51.328;7.322;2023-02-28T10:32:00;100103.00;;;4.21;47.28
21594;BME280;10959;51.328;7.322;2023-02-28T10:34:29;100090.53;;;4.24;47.43
21594;BME280;10959;51.328;7.322;2023-02-28T10:36:56;100098.53;;;4.30;46.87
21594;BME280;10959;51.328;7.322;2023-02-28T10:39:40;100092.25;;;4.44;45.74
21594;BME280;10959;51.328;7.322;2023-02-28T10:42:20;100086.69;;;4.90;46.69
21594;BME280;10959;51.328;7.322;2023-02-28T10:44:47;100089.25;;;5.09;45.48
21594;BME280;10959;51.328;7.322;2023-02-28T10:47:15;100090.84;;;5.34;45.00
21594;BME280;10959;51.328;7.322;2023-02-28T10:49:49;100089.94;;;5.34;44.25
21594;BME280;10959;51.328;7.322;2023-02-28T10:52:33;100093.50;;;5.38;44.97
21594;BME280;10959;51.328;7.322;2023-02-28T10:55:18;100097.16;;;5.21;43.72
21594;BME280;10959;51.328;7.322;2023-02-28T10:57:45;100087.25;;;5.35;44.45
21594;BME280;10959;51.328;7.322;2023-02-28T11:00:15;100092.19;;;4.59;45.61
21594;BME280;10959;51.328;7.322;2023-02-28T11:02:43;100096.72;;;4.32;46.84
21594;BME280;10959;51.328;7.322;2023-02-28T11:05:28;100083.34;;;4.48;47.02
21594;BME280;10959;51.328;7.322;2023-02-28T11:07:57;100082.34;;;4.71;47.46
21594;BME280;10959;51.328;7.322;2023-02-28T11:10:28;100092.19;;;4.56;46.81
21594;BME280;10959;51.328;7.322;2023-02-28T11:12:57;100090.44;;;4.54;47.06
21594;BME280;10959;51.328;7.322;2023-02-28T11:15:26;100081.47;;;4.72;47.41
21594;BME280;10959;51.328;7.322;2023-02-28T11:17:54;100095.50;;;5.05;47.24
21594;BME280;10959;51.328;7.322;2023-02-28T11:20:25;100094.81;;;4.70;46.73
21594;BME280;10959;51.328;7.322;2023-02-28T11:22:54;100079.56;;;4.92;46.09
21594;BME280;10959;51.328;7.322;2023-02-28T11:25:23;100087.25;;;5.37;46.72
21594;BME280;10959;51.328;7.322;2023-02-28T11:27:52;100081.13;;;5.27;46.20
21594;BME280;10959;51.328;7.322;2023-02-28T11:30:34;100079.50;;;5.05;45.62
21594;BME280;10959;51.328;7.322;2023-02-28T11:33:14;100076.69;;;5.20;45.46
21594;BME280;10959;51.328;7.322;2023-02-28T11:35:48;100071.41;;;5.12;45.33
21594;BME280;10959;51.328;7.322;2023-02-28T11:38:15;100075.78;;;5.24;45.42
21594;BME280;10959;51.328;7.322;2023-02-28T11:40:47;100066.94;;;5.13;43.85
21594;BME280;10959;51.328;7.322;2023-02-28T11:43:30;100066.03;;;5.22;43.60
21594;BME280;10959;51.328;7.322;2023-02-28T11:46:12;100067.06;;;5.00;42.57
21594;BME280;10959;51.328;7.322;2023-02-28T11:48:50;100068.44;;;5.51;43.22
21594;BME280;10959;51.328;7.322;2023-02-28T11:51:23;100065.47;;;5.83;43.62
21594;BME280;10959;51.328;7.322;2023-02-28T11:54:23;100062.50;;;6.13;45.51
21594;BME280;10959;51.328;7.322;2023-02-28T11:56:57;100061.31;;;6.38;43.46
21594;BME280;10959;51.328;7.322;2023-02-28T11:59:38;100064.59;;;6.62;43.43
21594;BME280;10959;51.328;7.322;2023-02-28T12:02:23;100052.34;;;6.44;43.08
21594;BME280;10959;51.328;7.322;2023-02-28T12:04:58;100061.91;;;6.64;43.19
21594;BME280;10959;51.328;7.322;2023-02-28T12:07:39;100065.91;;;6.27;42.67
21594;BME280;10959;51.328;7.322;2023-02-28T12:10:20;100060.56;;;6.30;42.57
21594;BME280;10959;51.328;7.322;2023-02-28T12:12:53;100048.66;;;6.53;42.55
21594;BME280;10959;51.328;7.322;2023-02-28T12:15:43;100048.28;;;6.11;43.06
21594;BME280;10959;51.328;7.322;2023-02-28T12:18:22;100056.84;;;6.40;42.84
21594;BME280;10959;51.328;7.322;2023-02-28T12:20:54;100046.81;;;6.58;43.47
21594;BME280;10959;51.328;7.322;2023-02-28T12:23:56;100049.41;;;6.64;44.10
21594;BME280;10959;51.328;7.322;2023-02-28T12:26:34;100041.91;;;6.91;43.07
21594;BME280;10959;51.328;7.322;2023-02-28T12:29:10;100047.28;;;6.88;43.54
21594;BME280;10959;51.328;7.322;2023-02-28T12:31:44;100033.03;;;6.86;43.21
21594;BME280;10959;51.328;7.322;2023-02-28T12:34:16;100048.81;;;7.04;43.54
21594;BME280;10959;51.328;7.322;2023-02-28T12:36:46;100035.50;;;7.00;43.03
21594;BME280;10959;51.328;7.322;2023-02-28T12:39:18;100029.66;;;6.74;42.38
21594;BME280;10959;51.328;7.322;2023-02-28T12:41:50;100019.94;;;6.67;43.69
21594;BME280;10959;51.328;7.322;2023-02-28T12:44:26;100014.56;;;6.69;44.13
21594;BME280;10959;51.328;7.322;2023-02-28T12:46:57;100023.06;;;6.33;43.05
21594;BME280;10959;51.328;7.322;2023-02-28T12:49:30;100012.63;;;6.12;43.94
21594;BME280;10959;51.328;7.322;2023-02-28T12:51:59;100014.59;;;5.97;44.63
21594;BME280;10959;51.328;7.322;2023-02-28T12:54:30;99997.19;;;6.34;44.45
21594;BME280;10959;51.328;7.322;2023-02-28T12:57:05;99998.00;;;6.40;43.61
21594;BME280;10959;51.328;7.322;2023-02-28T12:59:36;99997.22;;;6.31;43.81
21594;BME280;10959;51.328;7.322;2023-02-28T13:05:19;99987.81;;;6.00;44.85
21594;BME280;10959;51.328;7.322;2023-02-28T13:08:03;99977.00;;;6.10;44.41
21594;BME280;10959;51.328;7.322;2023-02-28T13:10:44;99989.13;;;6.37;44.77
21594;BME280;10959;51.328;7.322;2023-02-28T13:13:15;99985.75;;;6.21;43.84
21594;BME280;10959;51.328;7.322;2023-02-28T13:15:57;99981.38;;;6.15;44.66
21594;BME280;10959;51.328;7.322;2023-02-28T13:18:30;99971.28;;;6.37;44.58
21594;BME280;10959;51.328;7.322;2023-02-28T13:20:59;99977.81;;;6.16;44.22
21594;BME280;10959;51.328;7.322;2023-02-28T13:23:39;99983.59;;;5.76;44.12
21594;BME280;10959;51.328;7.322;2023-02-28T13:26:07;99983.22;;;6.12;44.34